createdAt,value
2017-08-09T00:01:44.523Z,60.98
2017-08-09T00:04:12.101Z,60.94
2017-08-09T00:06:39.664Z,61.10
2017-08-09T00:09:07.274Z,61.34
2017-08-09T00:11:34.883Z,61.40
2017-08-09T00:14:02.603Z,61.44
2017-08-09T00:16:30.211Z,61.44
2017-08-09T00:18:57.734Z,61.53
2017-08-09T00:21:25.260Z,62.08
2017-08-09T00:23:53.088Z,62.55
2017-08-09T00:26:20.618Z,63.15
2017-08-09T00:28:48.200Z,62.97
2017-08-09T00:31:15.814Z,63.47
2017-08-09T00:33:43.576Z,63.49
2017-08-09T00:36:11.162Z,63.72
2017-08-09T00:38:38.851Z,63.85
2017-08-09T00:41:06.701Z,64.29
2017-08-09T00:43:34.649Z,63.85
2017-08-09T00:46:02.250Z,63.69
2017-08-09T00:48:29.859Z,63.75
2017-08-09T00:50:57.432Z,63.59
2017-08-09T00:53:25.070Z,64.16
2017-08-09T00:55:52.662Z,64.53
2017-08-09T00:58:20.264Z,64.16
2017-08-09T01:00:47.911Z,64.30
2017-08-09T01:03:15.491Z,63.97
2017-08-09T01:05:43.067Z,63.94
2017-08-09T01:08:10.653Z,64.40
2017-08-09T01:10:38.233Z,64.33
2017-08-09T01:13:05.812Z,64.49
2017-08-09T01:15:33.388Z,64.84
2017-08-09T01:18:04.153Z,65.02
2017-08-09T01:20:31.791Z,65.66
2017-08-09T01:22:59.431Z,65.13
2017-08-09T01:25:27.091Z,65.22
2017-08-09T01:27:54.893Z,65.95
2017-08-09T01:30:23.015Z,66.29
2017-08-09T01:32:50.697Z,66.41
2017-08-09T01:35:26.080Z,65.81
2017-08-09T01:37:53.647Z,66.30
2017-08-09T01:40:21.260Z,66.24
2017-08-09T01:42:49.302Z,66.36
2017-08-09T01:45:29.277Z,66.80
2017-08-09T01:47:57.027Z,66.24
2017-08-09T01:50:24.651Z,66.90
2017-08-09T01:52:58.544Z,66.87
2017-08-09T01:55:26.172Z,66.96
2017-08-09T01:57:54.630Z,66.68
2017-08-09T02:00:26.205Z,66.87
2017-08-09T02:02:53.833Z,67.08
2017-08-09T02:05:21.642Z,67.23
2017-08-09T02:07:50.721Z,67.03
2017-08-09T02:10:18.275Z,66.80
2017-08-09T02:12:45.852Z,66.86
2017-08-09T02:15:13.474Z,67.09
2017-08-09T02:17:41.017Z,66.80
2017-08-09T02:20:08.557Z,67.41
2017-08-09T02:22:36.129Z,67.27
2017-08-09T02:25:03.665Z,67.39
2017-08-09T02:27:31.422Z,67.89
2017-08-09T02:29:59.007Z,67.98
2017-08-09T02:32:26.603Z,68.09
2017-08-09T02:34:54.243Z,68.11
2017-08-09T02:37:21.816Z,67.77
2017-08-09T02:39:49.436Z,67.82
2017-08-09T02:42:17.231Z,67.94
2017-08-09T02:44:44.853Z,68.43
2017-08-09T02:47:12.490Z,68.81
2017-08-09T02:49:40.070Z,68.51
2017-08-09T02:52:07.839Z,68.56
2017-08-09T02:54:35.503Z,68.51
2017-08-09T02:59:42.815Z,68.77
2017-08-09T03:02:11.146Z,68.76
2017-08-09T03:04:38.712Z,69.66
2017-08-09T03:07:06.322Z,69.68
2017-08-09T03:09:33.887Z,69.87
2017-08-09T03:12:01.426Z,69.64
2017-08-09T03:14:29.006Z,69.86
2017-08-09T03:16:56.570Z,70.33
2017-08-09T03:19:24.145Z,69.67
2017-08-09T03:21:51.703Z,70.02
2017-08-09T03:24:19.263Z,70.25
2017-08-09T03:26:46.826Z,70.59
2017-08-09T03:29:14.392Z,70.49
2017-08-09T03:31:41.973Z,70.59
2017-08-09T03:34:09.517Z,70.69
2017-08-09T03:36:37.054Z,70.33
2017-08-09T03:39:04.665Z,70.53
2017-08-09T03:41:32.238Z,70.12
2017-08-09T03:43:59.784Z,69.86
2017-08-09T03:46:27.383Z,69.83
2017-08-09T03:48:54.949Z,69.87
2017-08-09T03:51:22.518Z,70.19
2017-08-09T03:53:50.121Z,70.09
2017-08-09T03:56:17.681Z,69.87
2017-08-09T03:58:45.265Z,69.75
2017-08-09T04:01:12.821Z,69.58
2017-08-09T04:03:40.520Z,69.47
2017-08-09T04:06:08.326Z,69.69
2017-08-09T04:08:35.963Z,69.50
2017-08-09T04:11:03.521Z,69.13
2017-08-09T04:13:31.069Z,68.92
2017-08-09T04:15:58.631Z,69.75
2017-08-09T04:18:26.173Z,69.59
2017-08-09T04:20:53.726Z,69.51
2017-08-09T04:23:21.294Z,69.91
2017-08-09T04:25:48.831Z,69.42
2017-08-09T04:28:16.357Z,69.38
2017-08-09T04:30:43.953Z,68.88
2017-08-09T04:33:11.564Z,68.55
2017-08-09T04:35:39.099Z,68.73
2017-08-09T04:38:07.442Z,67.75
2017-08-09T04:40:34.993Z,67.59
2017-08-09T04:43:02.542Z,68.37
2017-08-09T04:45:30.101Z,68.72
2017-08-09T04:47:57.868Z,68.44
2017-08-09T04:50:25.397Z,68.03
2017-08-09T04:52:52.974Z,67.74
2017-08-09T04:55:20.600Z,68.00
2017-08-09T04:57:48.146Z,68.35
2017-08-09T05:00:15.856Z,67.82
2017-08-09T05:02:43.410Z,67.92
2017-08-09T05:05:10.982Z,67.55
2017-08-09T05:07:38.581Z,67.33
2017-08-09T05:10:06.162Z,66.53
2017-08-09T05:12:33.836Z,66.67
2017-08-09T05:15:01.479Z,65.81
2017-08-09T05:17:29.054Z,65.56
2017-08-09T05:19:56.643Z,64.58
2017-08-09T05:22:24.202Z,63.94
2017-08-09T05:24:51.802Z,63.92
2017-08-09T05:27:19.329Z,63.32
2017-08-09T05:29:46.960Z,63.49
2017-08-09T05:32:14.514Z,62.02
2017-08-09T05:34:42.157Z,61.70
2017-08-09T05:37:09.776Z,62.60
2017-08-09T05:39:37.401Z,61.73
2017-08-09T05:42:04.971Z,61.75
2017-08-09T05:44:32.538Z,61.54
2017-08-09T05:47:00.114Z,61.50
2017-08-09T05:49:27.740Z,60.99
2017-08-09T05:51:55.579Z,60.48
2017-08-09T05:54:23.171Z,58.94
2017-08-09T05:56:50.920Z,58.48
2017-08-09T05:59:18.451Z,58.50
2017-08-09T06:01:46.065Z,58.27
2017-08-09T06:04:13.669Z,58.12
2017-08-09T06:06:41.246Z,57.75
2017-08-09T06:09:08.834Z,57.01
2017-08-09T06:11:36.479Z,57.00
2017-08-09T06:14:04.009Z,56.97
2017-08-09T06:16:31.578Z,56.41
2017-08-09T06:18:59.343Z,56.06
2017-08-09T06:21:26.879Z,56.22
2017-08-09T06:23:54.484Z,55.99
2017-08-09T06:26:22.046Z,55.90
2017-08-09T06:28:49.621Z,55.60
2017-08-09T06:31:18.078Z,55.22
2017-08-09T06:33:45.740Z,54.99
2017-08-09T06:36:13.298Z,55.03
2017-08-09T06:38:42.500Z,54.77
2017-08-09T06:41:10.046Z,54.92
2017-08-09T06:43:37.662Z,54.91
2017-08-09T06:46:05.286Z,55.16
2017-08-09T06:48:32.895Z,53.11
2017-08-09T06:51:00.457Z,52.84
2017-08-09T06:53:28.072Z,53.35
2017-08-09T06:55:55.703Z,52.58
2017-08-09T06:58:23.258Z,52.28
2017-08-09T07:00:50.935Z,52.24
2017-08-09T07:03:18.469Z,52.96
2017-08-09T07:05:45.996Z,52.21
2017-08-09T07:08:13.599Z,51.41
2017-08-09T07:10:41.625Z,50.66
2017-08-09T07:13:09.172Z,50.73
2017-08-09T07:15:36.761Z,50.69
2017-08-09T07:18:04.539Z,51.26
2017-08-09T07:20:32.288Z,49.30
2017-08-09T07:22:59.853Z,49.62
2017-08-09T07:25:27.389Z,49.89
2017-08-09T07:27:54.937Z,49.53
2017-08-09T07:30:22.529Z,49.41
2017-08-09T07:32:50.290Z,48.71
2017-08-09T07:35:17.905Z,48.59
2017-08-09T07:37:45.523Z,48.79
2017-08-09T07:40:13.300Z,47.93
2017-08-09T07:42:40.843Z,48.00
2017-08-09T07:45:08.448Z,48.68
2017-08-09T07:47:36.004Z,48.71
2017-08-09T07:50:04.324Z,47.94
2017-08-09T07:52:31.961Z,47.42
2017-08-09T07:54:59.784Z,46.36
2017-08-09T07:57:27.314Z,47.42
2017-08-09T07:59:54.910Z,47.55
2017-08-09T08:02:22.645Z,47.98
2017-08-09T08:04:50.207Z,46.51
2017-08-09T08:07:17.972Z,47.15
2017-08-09T08:09:45.558Z,47.05
2017-08-09T08:12:13.109Z,46.66
2017-08-09T08:14:40.678Z,46.60
2017-08-09T08:17:08.290Z,46.70
2017-08-09T08:19:36.039Z,45.95
2017-08-09T08:22:03.782Z,45.29
2017-08-09T08:24:31.365Z,46.38
2017-08-09T08:27:03.883Z,45.60
2017-08-09T08:29:31.457Z,46.01
2017-08-09T08:31:59.020Z,45.29
2017-08-09T08:34:26.774Z,45.58
2017-08-09T08:36:54.382Z,45.91
2017-08-09T08:41:58.646Z,44.23
2017-08-09T08:44:26.292Z,44.52
2017-08-09T08:46:54.501Z,43.97
2017-08-09T08:49:22.047Z,43.71
2017-08-09T08:51:50.464Z,44.11
2017-08-09T08:54:18.037Z,43.03
2017-08-09T08:56:45.689Z,43.00
2017-08-09T08:59:13.331Z,43.06
2017-08-09T09:01:40.951Z,43.55
2017-08-09T09:04:08.473Z,43.08
2017-08-09T09:06:36.028Z,43.79
2017-08-09T09:09:03.644Z,42.97
2017-08-09T09:11:31.196Z,42.70
2017-08-09T09:13:58.850Z,41.91
2017-08-09T09:16:26.910Z,41.43
2017-08-09T09:18:54.476Z,41.07
2017-08-09T09:21:22.009Z,42.03
2017-08-09T09:23:49.560Z,42.36
2017-08-09T09:26:17.311Z,41.24
2017-08-09T09:28:44.894Z,39.99
2017-08-09T09:31:13.208Z,40.91
2017-08-09T09:33:40.798Z,40.96
2017-08-09T09:36:08.418Z,41.27
2017-08-09T09:38:36.023Z,41.17
2017-08-09T09:41:03.776Z,40.12
2017-08-09T09:43:31.350Z,40.13
2017-08-09T09:45:58.978Z,39.70
2017-08-09T09:48:26.559Z,39.98
2017-08-09T09:50:59.506Z,39.87
2017-08-09T09:53:27.679Z,39.78
2017-08-09T09:55:55.406Z,39.94
2017-08-09T09:58:22.923Z,40.41
2017-08-09T10:00:50.516Z,40.73
2017-08-09T10:03:18.266Z,40.54
2017-08-09T10:05:46.753Z,40.05
2017-08-09T10:08:14.384Z,37.95
2017-08-09T10:10:41.976Z,38.12
2017-08-09T10:13:09.512Z,39.48
2017-08-09T10:15:37.096Z,39.73
2017-08-09T10:18:04.838Z,39.34
2017-08-09T10:20:33.919Z,38.97
2017-08-09T10:23:01.485Z,39.41
2017-08-09T10:25:30.682Z,39.06
2017-08-09T10:27:59.870Z,38.35
2017-08-09T10:30:36.940Z,37.48
2017-08-09T10:33:06.876Z,37.03
2017-08-09T10:35:36.523Z,36.82
2017-08-09T10:38:05.789Z,35.30
2017-08-09T10:40:35.187Z,36.46
2017-08-09T10:43:04.604Z,36.61
2017-08-09T10:45:33.756Z,36.66
2017-08-09T10:48:02.963Z,37.21
2017-08-09T10:50:32.108Z,37.14
2017-08-09T10:53:00.822Z,37.36
2017-08-09T10:55:28.352Z,36.87
2017-08-09T10:57:56.101Z,36.51
2017-08-09T11:00:23.683Z,36.80
2017-08-09T11:02:51.236Z,36.67
2017-08-09T11:05:19.039Z,36.60
2017-08-09T11:07:46.865Z,35.37
2017-08-09T11:10:14.455Z,36.24
2017-08-09T11:12:42.041Z,35.86
2017-08-09T11:15:09.880Z,35.92
2017-08-09T11:17:37.642Z,36.46
2017-08-09T11:20:05.157Z,36.70
2017-08-09T11:22:32.728Z,37.05
2017-08-09T11:25:00.264Z,37.72
2017-08-09T11:27:28.241Z,38.20
2017-08-09T11:29:55.789Z,38.03
2017-08-09T11:32:23.603Z,38.36
2017-08-09T11:34:51.170Z,38.35
2017-08-09T11:37:18.717Z,37.98
2017-08-09T11:39:46.323Z,38.35
2017-08-09T11:42:13.851Z,37.98
2017-08-09T11:44:41.401Z,37.54
2017-08-09T11:47:09.208Z,37.38
2017-08-09T11:49:36.775Z,37.15
2017-08-09T11:52:04.319Z,37.43
2017-08-09T11:54:31.888Z,38.11
2017-08-09T11:56:59.431Z,38.15
2017-08-09T11:59:26.980Z,38.21
2017-08-09T12:01:54.529Z,38.26
2017-08-09T12:04:22.053Z,37.73
2017-08-09T12:06:49.621Z,37.89
2017-08-09T12:09:17.234Z,37.26
2017-08-09T12:11:44.741Z,36.88
2017-08-09T12:14:12.279Z,36.49
2017-08-09T12:16:39.848Z,35.92
2017-08-09T12:19:07.724Z,33.75
2017-08-09T12:21:35.500Z,35.05
2017-08-09T12:24:03.046Z,34.76
2017-08-09T12:26:30.810Z,34.05
2017-08-09T12:28:58.472Z,33.81
2017-08-09T12:31:26.104Z,33.90
2017-08-09T12:33:53.717Z,33.22
2017-08-09T12:36:21.238Z,33.34
2017-08-09T12:38:48.905Z,33.26
2017-08-09T12:41:16.641Z,33.77
2017-08-09T12:43:44.413Z,34.82
2017-08-09T12:46:12.011Z,34.63
2017-08-09T12:48:39.534Z,35.32
2017-08-09T12:51:07.194Z,34.78
2017-08-09T12:53:34.751Z,35.02
2017-08-09T12:56:03.136Z,34.91
2017-08-09T12:58:30.733Z,34.20
2017-08-09T13:00:58.355Z,33.93
2017-08-09T13:03:25.940Z,33.87
2017-08-09T13:05:53.579Z,34.42
2017-08-09T13:08:21.567Z,33.91
2017-08-09T13:10:50.935Z,33.61
2017-08-09T13:13:18.520Z,35.25
2017-08-09T13:15:46.117Z,35.23
2017-08-09T13:18:13.716Z,36.11
2017-08-09T13:20:41.347Z,36.63
2017-08-09T13:23:08.942Z,37.84
2017-08-09T13:25:36.503Z,38.36
2017-08-09T13:28:04.091Z,37.67
2017-08-09T13:30:32.717Z,37.34
2017-08-09T13:33:00.330Z,35.28
2017-08-09T13:35:29.607Z,33.45
2017-08-09T13:37:57.809Z,32.40
2017-08-09T13:40:25.440Z,33.41
2017-08-09T13:42:53.190Z,35.12
2017-08-09T13:45:20.812Z,35.01
2017-08-09T13:47:48.379Z,34.85
2017-08-09T13:50:15.911Z,35.49
2017-08-09T13:52:43.477Z,36.71
2017-08-09T13:55:11.086Z,37.42
2017-08-09T13:57:38.670Z,36.30
2017-08-09T14:00:09.635Z,38.62
2017-08-09T14:02:37.213Z,38.76
2017-08-09T14:05:05.051Z,39.67
2017-08-09T14:07:33.024Z,39.95
2017-08-09T14:10:00.617Z,39.32
2017-08-09T14:12:28.481Z,39.17
2017-08-09T14:14:56.231Z,39.81
2017-08-09T14:17:23.779Z,40.21
2017-08-09T14:19:51.551Z,40.04
2017-08-09T14:22:19.143Z,40.50
2017-08-09T14:24:46.725Z,40.69
2017-08-09T14:27:14.325Z,40.65
2017-08-09T14:29:42.727Z,39.88
2017-08-09T14:32:10.387Z,40.94
2017-08-09T14:34:37.997Z,40.98
2017-08-09T14:37:06.896Z,40.59
2017-08-09T14:39:34.520Z,39.96
2017-08-09T14:42:02.097Z,40.39
2017-08-09T14:44:29.730Z,40.86
2017-08-09T14:46:57.334Z,40.35
2017-08-09T14:49:24.900Z,40.14
2017-08-09T14:51:52.484Z,39.78
2017-08-09T14:54:20.082Z,39.68
2017-08-09T14:56:47.631Z,39.67
2017-08-09T14:59:15.675Z,40.11
2017-08-09T15:01:43.313Z,39.11
2017-08-09T15:04:10.984Z,39.03
2017-08-09T15:06:38.518Z,38.93
2017-08-09T15:09:06.137Z,38.71
2017-08-09T15:11:33.903Z,39.01
2017-08-09T15:14:02.612Z,38.45
2017-08-09T15:16:30.307Z,38.28
2017-08-09T15:18:57.949Z,38.18
2017-08-09T15:21:25.495Z,37.92
2017-08-09T15:23:53.066Z,37.98
2017-08-09T15:26:20.670Z,38.52
2017-08-09T15:28:48.180Z,39.16
2017-08-09T15:31:15.814Z,39.27
2017-08-09T15:33:43.386Z,37.67
2017-08-09T15:36:10.937Z,37.91
2017-08-09T15:38:38.517Z,37.36
2017-08-09T15:41:06.530Z,37.26
2017-08-09T15:43:34.413Z,36.97
2017-08-09T15:46:01.998Z,37.56
2017-08-09T15:48:29.547Z,37.61
2017-08-09T15:50:57.102Z,37.76
2017-08-09T15:53:24.661Z,37.50
2017-08-09T15:55:52.215Z,37.45
2017-08-09T15:58:19.979Z,37.34
2017-08-09T16:00:47.551Z,37.44
2017-08-09T16:03:15.328Z,37.81
2017-08-09T16:05:42.852Z,37.91
2017-08-09T16:08:11.156Z,37.75
2017-08-09T16:10:38.670Z,37.80
2017-08-09T16:13:06.200Z,37.88
2017-08-09T16:15:34.425Z,37.67
2017-08-09T16:18:01.970Z,38.28
2017-08-09T16:20:29.525Z,38.00
2017-08-09T16:22:57.073Z,38.63
2017-08-09T16:25:24.589Z,38.42
2017-08-09T16:27:52.141Z,38.83
2017-08-09T16:30:19.768Z,40.96
2017-08-09T16:32:47.320Z,42.04
2017-08-09T16:35:14.858Z,40.88
2017-08-09T16:37:42.419Z,42.19
2017-08-09T16:40:09.938Z,42.19
2017-08-09T16:42:37.458Z,43.30
2017-08-09T16:45:05.011Z,43.69
2017-08-09T16:47:32.556Z,43.91
2017-08-09T16:50:00.347Z,43.86
2017-08-09T16:52:27.890Z,43.92
2017-08-09T16:54:55.415Z,44.34
2017-08-09T16:57:22.940Z,44.57
2017-08-09T16:59:50.745Z,45.07
2017-08-09T17:02:18.305Z,45.41
2017-08-09T17:04:45.829Z,45.91
2017-08-09T17:07:13.350Z,46.11
2017-08-09T17:09:40.921Z,46.19
2017-08-09T17:12:08.848Z,46.59
2017-08-09T17:14:36.388Z,46.89
2017-08-09T17:17:04.009Z,47.16
2017-08-09T17:19:31.575Z,47.60
2017-08-09T17:21:59.116Z,47.65
2017-08-09T17:24:26.700Z,47.71
2017-08-09T17:26:54.262Z,47.71
2017-08-09T17:29:21.802Z,48.20
2017-08-09T17:31:49.373Z,48.49
2017-08-09T17:34:16.951Z,48.70
2017-08-09T17:36:44.473Z,49.03
2017-08-09T17:39:12.052Z,49.15
2017-08-09T17:41:39.579Z,49.32
2017-08-09T17:44:07.213Z,49.22
2017-08-09T17:46:34.847Z,49.84
2017-08-09T17:49:02.419Z,50.08
2017-08-09T17:51:30.206Z,50.90
2017-08-09T17:53:57.794Z,51.29
2017-08-09T17:56:25.549Z,51.52
2017-08-09T17:58:53.080Z,51.98
2017-08-09T18:01:20.659Z,51.83
2017-08-09T18:03:48.238Z,51.95
2017-08-09T18:06:15.989Z,52.21
2017-08-09T18:08:43.599Z,52.13
2017-08-09T18:11:11.132Z,52.07
2017-08-09T18:13:38.651Z,51.97
2017-08-09T18:16:06.233Z,52.34
2017-08-09T18:18:33.773Z,52.10
2017-08-09T18:21:01.368Z,52.01
2017-08-09T18:23:28.947Z,52.09
2017-08-09T18:25:56.476Z,51.75
2017-08-09T18:28:24.009Z,52.15
2017-08-09T18:30:51.604Z,52.12
2017-08-09T18:33:19.169Z,52.32
2017-08-09T18:35:46.730Z,52.31
2017-08-09T18:38:14.291Z,52.59
2017-08-09T18:40:41.857Z,52.61
2017-08-09T18:43:09.403Z,52.67
2017-08-09T18:45:36.952Z,53.11
2017-08-09T18:48:04.498Z,53.53
2017-08-09T18:50:32.027Z,53.78
2017-08-09T18:52:59.569Z,53.91
2017-08-09T18:55:27.154Z,54.82
2017-08-09T18:57:54.662Z,55.28
2017-08-09T19:00:22.285Z,55.61
2017-08-09T19:02:49.801Z,55.69
2017-08-09T19:05:17.395Z,55.48
2017-08-09T19:07:44.976Z,55.66
2017-08-09T19:10:12.518Z,56.37
2017-08-09T19:12:40.065Z,56.52
2017-08-09T19:15:08.205Z,57.03
2017-08-09T19:17:35.756Z,56.88
2017-08-09T19:20:03.313Z,57.06
2017-08-09T19:22:31.098Z,57.39
2017-08-09T19:24:58.664Z,57.30
2017-08-09T19:27:26.234Z,57.64
2017-08-09T19:29:53.864Z,57.55
2017-08-09T19:32:21.439Z,57.74
2017-08-09T19:34:48.971Z,58.28
2017-08-09T19:37:16.573Z,58.58
2017-08-09T19:39:44.148Z,58.46
2017-08-09T19:42:11.746Z,58.42
2017-08-09T19:44:39.677Z,58.63
2017-08-09T19:47:07.282Z,58.47
2017-08-09T19:49:34.844Z,58.53
2017-08-09T19:52:02.407Z,58.78
2017-08-09T19:54:29.990Z,58.83
2017-08-09T19:56:57.516Z,59.34
2017-08-09T19:59:25.080Z,59.50
2017-08-09T20:01:52.689Z,59.40
2017-08-09T20:04:21.045Z,59.21
2017-08-09T20:06:48.589Z,59.11
2017-08-09T20:09:16.189Z,59.43
2017-08-09T20:11:43.750Z,59.66
2017-08-09T20:14:11.277Z,59.56
2017-08-09T20:16:38.869Z,59.25
2017-08-09T20:19:06.738Z,58.97
2017-08-09T20:21:34.324Z,59.01
2017-08-09T20:24:01.933Z,59.02
2017-08-09T20:26:29.487Z,58.39
2017-08-09T20:28:57.093Z,57.91
2017-08-09T20:31:24.851Z,57.64
2017-08-09T20:33:52.427Z,57.30
2017-08-09T20:36:20.201Z,57.42
2017-08-09T20:38:47.829Z,57.28
2017-08-09T20:41:15.360Z,57.22
2017-08-09T20:43:43.229Z,57.44
2017-08-09T20:46:11.312Z,57.42
2017-08-09T20:48:38.911Z,57.54
2017-08-09T20:51:06.461Z,57.86
2017-08-09T20:53:35.087Z,57.78
2017-08-09T20:56:02.751Z,57.61
2017-08-09T20:58:30.372Z,57.34
2017-08-09T21:00:57.994Z,56.88
2017-08-09T21:03:25.525Z,57.22
2017-08-09T21:05:53.331Z,56.81
2017-08-09T21:08:20.881Z,56.65
2017-08-09T21:10:48.500Z,56.80
2017-08-09T21:13:16.089Z,56.59
2017-08-09T21:15:43.674Z,56.60
2017-08-09T21:18:11.227Z,56.55
2017-08-09T21:20:38.750Z,56.55
2017-08-09T21:23:06.378Z,56.30
2017-08-09T21:25:33.935Z,56.07
2017-08-09T21:28:01.543Z,56.23
2017-08-09T21:30:29.120Z,56.24
2017-08-09T21:32:56.701Z,55.50
2017-08-09T21:35:24.245Z,55.64
2017-08-09T21:37:51.796Z,55.50
2017-08-09T21:40:19.342Z,55.30
2017-08-09T21:42:50.637Z,55.78
2017-08-09T21:45:19.082Z,55.81
2017-08-09T21:47:46.757Z,55.42
2017-08-09T21:50:14.359Z,55.85
2017-08-09T21:52:42.153Z,55.74
2017-08-09T21:55:09.771Z,55.87
2017-08-09T21:57:37.413Z,55.73
2017-08-09T22:00:07.239Z,55.80
2017-08-09T22:02:34.872Z,55.50
2017-08-09T22:05:02.396Z,55.52
2017-08-09T22:07:29.975Z,55.50
2017-08-09T22:09:57.510Z,55.75
2017-08-09T22:12:25.943Z,56.08
2017-08-09T22:14:53.503Z,56.50
2017-08-09T22:17:27.428Z,56.45
2017-08-09T22:19:55.927Z,55.87
2017-08-09T22:22:23.439Z,55.78
2017-08-09T22:24:52.179Z,55.62
2017-08-09T22:27:19.717Z,55.49
2017-08-09T22:29:47.443Z,55.22
2017-08-09T22:32:15.338Z,54.83
2017-08-09T22:34:43.233Z,54.47
2017-08-09T22:37:11.086Z,54.38
2017-08-09T22:39:38.665Z,54.92
2017-08-09T22:42:06.216Z,55.27
2017-08-09T22:44:33.729Z,55.18
2017-08-09T22:47:01.273Z,55.30
2017-08-09T22:49:28.785Z,55.56
2017-08-09T22:51:56.300Z,56.67
2017-08-09T22:54:24.652Z,57.76
2017-08-09T22:56:52.298Z,57.91
2017-08-09T22:59:19.827Z,58.59
2017-08-09T23:01:47.703Z,59.41
2017-08-09T23:04:15.255Z,60.45
2017-08-09T23:06:42.781Z,61.25
2017-08-09T23:09:10.339Z,62.26
2017-08-09T23:11:37.917Z,63.33
2017-08-09T23:14:05.448Z,63.25
2017-08-09T23:16:33.980Z,64.52
2017-08-09T23:19:01.852Z,64.47
2017-08-09T23:21:29.395Z,64.99
2017-08-09T23:23:57.003Z,65.14
2017-08-09T23:26:24.567Z,65.32
2017-08-09T23:28:52.093Z,65.35
2017-08-09T23:31:19.650Z,65.08
2017-08-09T23:33:47.172Z,65.70
2017-08-09T23:36:14.973Z,65.35
2017-08-09T23:38:42.545Z,65.49
2017-08-09T23:41:10.124Z,65.29
2017-08-09T23:43:37.802Z,65.37
2017-08-09T23:46:05.462Z,66.08
2017-08-09T23:48:33.071Z,66.91
2017-08-09T23:51:00.786Z,66.70
2017-08-09T23:53:28.421Z,66.26
2017-08-09T23:55:56.144Z,65.76
2017-08-09T23:58:23.823Z,65.91
